createdAt,value
2018-04-14T00:00:28.017Z,99914.34
2018-04-14T00:03:30.092Z,99916.69
2018-04-14T00:06:31.430Z,99919.22
2018-04-14T00:09:32.790Z,99941.09
2018-04-14T00:12:34.082Z,99940.58
2018-04-14T00:15:35.430Z,99941.23
2018-04-14T00:18:36.875Z,99940.41
2018-04-14T00:21:38.898Z,99942.91
2018-04-14T00:24:40.211Z,99939.51
2018-04-14T00:27:41.602Z,99949.84
2018-04-14T00:30:42.910Z,99947.19
2018-04-14T00:33:44.168Z,99948.00
2018-04-14T00:36:45.473Z,99956.70
2018-04-14T00:39:47.502Z,99956.22
2018-04-14T00:42:48.827Z,99962.05
2018-04-14T00:45:50.960Z,99963.33
2018-04-14T00:48:52.478Z,99963.53
2018-04-14T00:51:53.748Z,99970.50
2018-04-14T00:54:55.831Z,99971.19
2018-04-14T00:57:57.919Z,99963.97
2018-04-14T01:01:00.009Z,99959.27
2018-04-14T01:04:01.347Z,99966.40
2018-04-14T01:07:03.455Z,99969.05
2018-04-14T01:10:04.825Z,99969.95
2018-04-14T01:13:06.179Z,99961.83
2018-04-14T01:16:07.497Z,99966.36
2018-04-14T01:19:08.810Z,99962.83
2018-04-14T01:22:10.117Z,99965.36
2018-04-14T01:25:11.431Z,99963.51
2018-04-14T01:28:13.496Z,99973.38
2018-04-14T01:31:14.794Z,99973.84
2018-04-14T01:34:16.066Z,99974.36
2018-04-14T01:37:17.358Z,99965.33
2018-04-14T01:40:18.840Z,99964.30
2018-04-14T01:43:20.198Z,99971.77
2018-04-14T01:46:21.556Z,99970.92
2018-04-14T01:49:22.889Z,99973.53
2018-04-14T01:52:24.323Z,99974.38
2018-04-14T01:55:26.410Z,99971.53
2018-04-14T01:58:28.649Z,99973.16
2018-04-14T02:01:29.957Z,99965.06
2018-04-14T02:04:31.290Z,99964.66
2018-04-14T02:07:32.605Z,99967.56
2018-04-14T02:10:33.924Z,99960.01
2018-04-14T02:13:35.306Z,99967.17
2018-04-14T02:16:36.659Z,99962.50
2018-04-14T02:19:37.997Z,99966.09
2018-04-14T02:22:39.361Z,99970.63
2018-04-14T02:25:40.695Z,99973.13
2018-04-14T02:28:42.755Z,99964.19
2018-04-14T02:31:44.079Z,99959.50
2018-04-14T02:34:46.132Z,99961.53
2018-04-14T02:37:47.404Z,99963.73
2018-04-14T02:43:56.834Z,99962.56
2018-04-14T02:46:58.133Z,99966.70
2018-04-14T02:50:00.215Z,99965.53
2018-04-14T02:53:02.277Z,99967.66
2018-04-14T02:56:03.654Z,99972.63
2018-04-14T02:59:05.717Z,99974.97
2018-04-14T03:02:07.136Z,99976.05
2018-04-14T03:05:08.505Z,99973.47
2018-04-14T03:08:09.841Z,99972.34
2018-04-14T03:11:11.928Z,99975.69
2018-04-14T03:14:13.971Z,99970.78
2018-04-14T03:17:15.255Z,99977.58
2018-04-14T03:20:16.572Z,99974.98
2018-04-14T03:23:17.886Z,99984.06
2018-04-14T03:26:19.351Z,99977.28
2018-04-14T03:29:20.652Z,99990.05
2018-04-14T03:32:22.072Z,99988.48
2018-04-14T03:35:23.422Z,99992.94
2018-04-14T03:38:24.841Z,99986.44
2018-04-14T03:41:26.202Z,99989.27
2018-04-14T03:44:28.382Z,99992.34
2018-04-14T03:47:30.062Z,99997.67
2018-04-14T03:50:32.112Z,99998.27
2018-04-14T03:53:33.434Z,99999.64
2018-04-14T03:56:34.728Z,99990.55
2018-04-14T03:59:36.058Z,99994.69
2018-04-14T04:02:37.403Z,100006.25
2018-04-14T04:05:38.760Z,100009.30
2018-04-14T04:08:40.858Z,100009.53
2018-04-14T04:11:42.172Z,100012.67
2018-04-14T04:14:43.455Z,100004.50
2018-04-14T04:17:44.759Z,100017.02
2018-04-14T04:21:04.479Z,100022.45
2018-04-14T04:24:24.564Z,100036.81
2018-04-14T04:27:25.895Z,100040.58
2018-04-14T04:30:27.968Z,100036.55
2018-04-14T04:33:29.276Z,100050.17
2018-04-14T04:36:30.595Z,100050.10
2018-04-14T04:39:31.967Z,100054.70
2018-04-14T04:42:34.026Z,100060.82
2018-04-14T04:45:35.456Z,100069.78
2018-04-14T04:48:36.776Z,100071.43
2018-04-14T04:51:38.084Z,100074.09
2018-04-14T04:54:39.409Z,100074.06
2018-04-14T04:57:41.498Z,100086.20
2018-04-14T05:00:43.608Z,100096.19
2018-04-14T05:03:44.884Z,100093.40
2018-04-14T05:06:46.225Z,100096.74
2018-04-14T05:09:48.281Z,100105.06
2018-04-14T05:12:49.720Z,100110.06
2018-04-14T05:15:51.339Z,100107.63
2018-04-14T05:18:53.410Z,100109.39
2018-04-14T05:21:54.723Z,100117.19
2018-04-14T05:24:56.039Z,100125.00
2018-04-14T05:27:57.543Z,100125.57
2018-04-14T05:30:58.870Z,100138.34
2018-04-14T05:34:00.182Z,100140.12
2018-04-14T05:37:01.531Z,100131.50
2018-04-14T05:40:02.892Z,100140.75
2018-04-14T05:43:04.285Z,100134.31
2018-04-14T05:46:05.657Z,100130.88
2018-04-14T05:49:07.061Z,100130.61
2018-04-14T05:55:16.483Z,100133.77
2018-04-14T05:58:17.779Z,100145.14
2018-04-14T06:01:19.107Z,100147.31
2018-04-14T06:04:20.428Z,100149.41
2018-04-14T06:07:21.749Z,100147.36
2018-04-14T06:10:23.088Z,100165.97
2018-04-14T06:13:25.190Z,100161.12
2018-04-14T06:16:26.527Z,100161.56
2018-04-14T06:19:27.880Z,100165.69
2018-04-14T06:22:29.250Z,100171.73
2018-04-14T06:25:30.622Z,100179.98
2018-04-14T06:28:31.986Z,100175.59
2018-04-14T06:31:33.281Z,100185.93
2018-04-14T06:34:34.646Z,100181.77
2018-04-14T06:37:35.982Z,100187.08
2018-04-14T06:40:38.100Z,100194.16
2018-04-14T06:43:39.453Z,100194.20
2018-04-14T06:46:40.795Z,100201.61
2018-04-14T06:49:42.179Z,100205.23
2018-04-14T06:52:44.269Z,100200.45
2018-04-14T06:55:45.588Z,100207.22
2018-04-14T06:58:46.879Z,100207.39
2018-04-14T07:01:48.942Z,100212.02
2018-04-14T07:04:50.316Z,100212.34
2018-04-14T07:07:51.641Z,100215.03
2018-04-14T07:10:52.984Z,100209.05
2018-04-14T07:13:54.334Z,100210.45
2018-04-14T07:16:56.448Z,100209.91
2018-04-14T07:19:57.803Z,100226.17
2018-04-14T07:22:59.147Z,100228.61
2018-04-14T07:26:01.208Z,100238.68
2018-04-14T07:29:02.520Z,100241.96
2018-04-14T07:32:03.887Z,100250.74
2018-04-14T07:35:05.229Z,100258.77
2018-04-14T07:38:07.306Z,100260.48
2018-04-14T07:41:09.440Z,100258.27
2018-04-14T07:44:10.786Z,100267.80
2018-04-14T07:47:12.158Z,100266.81
2018-04-14T07:50:13.544Z,100281.71
2018-04-14T07:53:14.913Z,100277.11
2018-04-14T07:56:16.255Z,100278.71
2018-04-14T07:59:17.634Z,100282.42
2018-04-14T08:02:18.979Z,100277.81
2018-04-14T08:05:20.340Z,100273.45
2018-04-14T08:08:21.704Z,100286.33
2018-04-14T08:11:23.078Z,100286.91
2018-04-14T08:14:24.427Z,100286.59
2018-04-14T08:17:25.800Z,100288.00
2018-04-14T08:20:27.162Z,100292.66
2018-04-14T08:23:28.529Z,100290.42
2018-04-14T08:26:29.904Z,100297.61
2018-04-14T08:29:31.234Z,100298.55
2018-04-14T08:32:33.314Z,100297.75
2018-04-14T08:35:35.409Z,100290.54
2018-04-14T08:38:37.554Z,100288.52
2018-04-14T08:41:38.922Z,100292.41
2018-04-14T08:44:40.347Z,100293.64
2018-04-14T08:47:41.718Z,100298.77
2018-04-14T08:50:43.097Z,100289.66
2018-04-14T08:53:44.539Z,100297.89
2018-04-14T08:56:45.908Z,100303.47
2018-04-14T08:59:47.249Z,100305.20
2018-04-14T09:02:49.311Z,100300.66
2018-04-14T09:05:50.659Z,100309.96
2018-04-14T09:08:51.983Z,100315.46
2018-04-14T09:11:53.400Z,100301.21
2018-04-14T09:14:54.731Z,100303.02
2018-04-14T09:17:56.099Z,100304.28
2018-04-14T09:20:57.462Z,100306.84
2018-04-14T09:23:58.790Z,100308.16
2018-04-14T09:27:00.915Z,100308.59
2018-04-14T09:30:02.310Z,100310.10
2018-04-14T09:33:03.658Z,100316.69
2018-04-14T09:36:05.058Z,100310.90
2018-04-14T09:39:07.177Z,100310.56
2018-04-14T09:42:08.607Z,100323.22
2018-04-14T09:45:10.025Z,100308.69
2018-04-14T09:48:18.398Z,100314.63
2018-04-14T09:51:19.742Z,100319.41
2018-04-14T09:54:21.847Z,100325.19
2018-04-14T09:57:23.203Z,100322.90
2018-04-14T10:00:26.417Z,100318.71
2018-04-14T10:03:27.792Z,100328.17
2018-04-14T10:06:29.117Z,100313.89
2018-04-14T10:09:30.523Z,100328.02
2018-04-14T10:12:31.958Z,100322.83
2018-04-14T10:15:33.325Z,100319.58
2018-04-14T10:18:34.695Z,100323.31
2018-04-14T10:21:36.091Z,100319.83
2018-04-14T10:24:38.217Z,100325.25
2018-04-14T10:27:39.629Z,100327.23
2018-04-14T10:30:41.035Z,100312.70
2018-04-14T10:33:42.393Z,100314.28
2018-04-14T10:36:44.465Z,100310.38
2018-04-14T10:39:46.597Z,100312.56
2018-04-14T10:42:48.004Z,100313.81
2018-04-14T10:45:49.342Z,100326.77
2018-04-14T10:48:50.754Z,100330.45
2018-04-14T10:51:52.126Z,100327.54
2018-04-14T10:54:53.505Z,100318.78
2018-04-14T10:57:54.913Z,100320.55
2018-04-14T11:00:56.308Z,100320.72
2018-04-14T11:03:58.419Z,100318.45
2018-04-14T11:06:59.792Z,100312.63
2018-04-14T11:10:01.140Z,100307.84
2018-04-14T11:13:03.260Z,100316.24
2018-04-14T11:16:04.634Z,100312.34
2018-04-14T11:19:06.008Z,100310.35
2018-04-14T11:22:07.371Z,100313.50
2018-04-14T11:25:08.752Z,100311.14
2018-04-14T11:28:10.136Z,100313.17
2018-04-14T11:31:12.246Z,100316.73
2018-04-14T11:34:13.614Z,100316.10
2018-04-14T11:37:15.008Z,100313.91
2018-04-14T11:40:16.343Z,100314.27
2018-04-14T11:43:17.761Z,100321.38
2018-04-14T11:46:19.210Z,100312.93
2018-04-14T11:49:20.640Z,100315.64
2018-04-14T11:52:22.056Z,100310.34
2018-04-14T11:55:23.438Z,100314.61
2018-04-14T11:58:25.557Z,100323.33
2018-04-14T12:01:27.794Z,100323.34
2018-04-14T12:04:29.222Z,100311.90
2018-04-14T12:07:30.624Z,100301.11
2018-04-14T12:10:31.989Z,100325.45
2018-04-14T12:13:33.377Z,100328.76
2018-04-14T12:16:34.746Z,100326.30
2018-04-14T12:19:36.149Z,100319.69
2018-04-14T12:22:37.564Z,100324.05
2018-04-14T12:25:38.960Z,100330.70
2018-04-14T12:28:41.096Z,100328.80
2018-04-14T12:31:42.475Z,100323.56
2018-04-14T12:34:43.841Z,100318.63
2018-04-14T12:37:45.227Z,100323.44
2018-04-14T12:40:46.624Z,100317.25
2018-04-14T12:43:47.995Z,100314.70
2018-04-14T12:46:49.380Z,100316.40
2018-04-14T12:49:50.849Z,100318.08
2018-04-14T12:52:52.274Z,100322.19
2018-04-14T12:55:54.437Z,100312.58
2018-04-14T12:58:55.837Z,100320.14
2018-04-14T13:01:57.300Z,100322.02
2018-04-14T13:04:58.677Z,100324.40
2018-04-14T13:08:00.104Z,100320.36
2018-04-14T13:11:01.529Z,100320.59
2018-04-14T13:14:02.914Z,100306.27
2018-04-14T13:17:04.366Z,100312.23
2018-04-14T13:20:05.794Z,100313.50
2018-04-14T13:23:07.902Z,100316.59
2018-04-14T13:26:09.342Z,100318.78
2018-04-14T13:29:11.454Z,100316.34
2018-04-14T13:32:12.835Z,100321.14
2018-04-14T13:35:14.230Z,100326.57
2018-04-14T13:38:15.586Z,100320.33
2018-04-14T13:44:25.078Z,100327.74
2018-04-14T13:47:26.473Z,100326.92
2018-04-14T13:50:28.605Z,100314.86
2018-04-14T13:53:30.002Z,100317.23
2018-04-14T13:56:31.392Z,100323.39
2018-04-14T13:59:33.506Z,100323.82
2018-04-14T14:02:34.985Z,100304.13
2018-04-14T14:05:36.432Z,100303.05
2018-04-14T14:08:37.918Z,100299.30
2018-04-14T14:11:39.317Z,100289.13
2018-04-14T14:14:40.783Z,100298.37
2018-04-14T14:17:42.185Z,100294.76
2018-04-14T14:20:44.310Z,100289.87
2018-04-14T14:23:45.702Z,100293.81
2018-04-14T14:26:47.145Z,100289.91
2018-04-14T14:29:48.552Z,100288.80
2018-04-14T14:32:49.960Z,100279.72
2018-04-14T14:35:51.384Z,100272.03
2018-04-14T14:38:52.810Z,100272.15
2018-04-14T14:41:54.183Z,100281.17
2018-04-14T14:44:55.610Z,100276.66
2018-04-14T14:47:56.998Z,100268.11
2018-04-14T14:50:58.455Z,100264.36
2018-04-14T14:53:59.852Z,100261.47
2018-04-14T14:57:01.259Z,100266.64
2018-04-14T15:00:02.699Z,100252.62
2018-04-14T15:03:04.217Z,100243.36
2018-04-14T15:06:05.616Z,100249.97
2018-04-14T15:09:07.064Z,100240.16
2018-04-14T15:12:08.432Z,100238.28
2018-04-14T15:15:09.860Z,100232.96
2018-04-14T15:18:11.249Z,100220.32
2018-04-14T15:21:13.353Z,100226.36
2018-04-14T15:24:14.764Z,100205.98
2018-04-14T15:27:16.207Z,100209.18
2018-04-14T15:30:17.576Z,100218.02
2018-04-14T15:33:18.976Z,100219.63
2018-04-14T15:36:20.351Z,100221.94
2018-04-14T15:39:22.480Z,100214.05
2018-04-14T15:42:23.833Z,100218.38
2018-04-14T15:45:25.221Z,100221.03
2018-04-14T15:48:26.629Z,100212.80
2018-04-14T15:51:28.026Z,100219.00
2018-04-14T15:54:29.357Z,100217.08
2018-04-14T15:57:30.753Z,100218.99
2018-04-14T16:00:32.112Z,100222.63
2018-04-14T16:03:34.222Z,100224.89
2018-04-14T16:06:35.565Z,100225.96
2018-04-14T16:09:37.007Z,100222.04
2018-04-14T16:12:39.111Z,100225.22
2018-04-14T16:15:40.472Z,100218.69
2018-04-14T16:18:42.597Z,100231.77
2018-04-14T16:21:43.967Z,100227.48
2018-04-14T16:24:45.305Z,100218.38
2018-04-14T16:27:46.678Z,100232.59
2018-04-14T16:30:48.070Z,100223.87
2018-04-14T16:33:49.456Z,100228.86
2018-04-14T16:36:50.802Z,100238.53
2018-04-14T16:39:52.201Z,100237.58
2018-04-14T16:42:53.586Z,100231.28
2018-04-14T16:45:54.933Z,100229.03
2018-04-14T16:48:57.038Z,100218.52
2018-04-14T16:51:58.424Z,100220.03
2018-04-14T16:54:59.845Z,100226.89
2018-04-14T16:58:01.936Z,100216.41
2018-04-14T17:01:04.079Z,100227.42
2018-04-14T17:04:05.484Z,100226.92
2018-04-14T17:07:07.573Z,100223.72
2018-04-14T17:10:09.667Z,100223.67
2018-04-14T17:13:11.788Z,100219.04
2018-04-14T17:16:13.100Z,100212.06
2018-04-14T17:19:15.154Z,100221.23
2018-04-14T17:22:16.520Z,100225.29
2018-04-14T17:25:17.919Z,100219.48
2018-04-14T17:28:19.257Z,100228.66
2018-04-14T17:31:20.630Z,100225.22
2018-04-14T17:34:21.950Z,100222.23
2018-04-14T17:37:23.305Z,100228.47
2018-04-14T17:40:24.674Z,100231.95
2018-04-14T17:43:26.029Z,100227.99
2018-04-14T17:46:27.403Z,100236.73
2018-04-14T17:49:28.755Z,100225.11
2018-04-14T17:52:30.855Z,100227.40
2018-04-14T17:55:32.215Z,100235.14
2018-04-14T17:58:33.978Z,100221.78
2018-04-14T18:01:36.039Z,100225.73
2018-04-14T18:04:38.139Z,100234.09
2018-04-14T18:07:40.249Z,100242.83
2018-04-14T18:10:41.617Z,100230.37
2018-04-14T18:13:42.944Z,100230.92
2018-04-14T18:16:45.037Z,100242.20
2018-04-14T18:19:47.125Z,100249.59
2018-04-14T18:22:48.444Z,100242.70
2018-04-14T18:25:49.755Z,100236.73
2018-04-14T18:28:51.115Z,100240.76
2018-04-14T18:31:53.181Z,100243.98
2018-04-14T18:34:55.276Z,100248.83
2018-04-14T18:37:57.363Z,100257.97
2018-04-14T18:40:59.424Z,100256.89
2018-04-14T18:44:01.527Z,100263.50
2018-04-14T18:47:02.906Z,100251.11
2018-04-14T18:50:04.268Z,100257.48
2018-04-14T18:53:05.584Z,100258.73
2018-04-14T18:56:06.911Z,100248.69
2018-04-14T18:59:08.251Z,100258.75
2018-04-14T19:02:10.335Z,100246.39
2018-04-14T19:05:11.730Z,100256.75
2018-04-14T19:08:13.048Z,100248.88
2018-04-14T19:11:15.093Z,100256.89
2018-04-14T19:14:16.383Z,100264.77
2018-04-14T19:17:17.705Z,100257.84
2018-04-14T19:20:19.205Z,100267.27
2018-04-14T19:23:20.743Z,100272.77
2018-04-14T19:26:22.072Z,100261.60
2018-04-14T19:29:24.123Z,100263.18
2018-04-14T19:32:26.050Z,100259.22
2018-04-14T19:35:27.403Z,100263.34
2018-04-14T19:38:29.440Z,100274.09
2018-04-14T19:41:30.841Z,100265.73
2018-04-14T19:44:32.162Z,100260.81
2018-04-14T19:47:33.604Z,100263.11
2018-04-14T19:50:34.917Z,100263.08
2018-04-14T19:53:36.265Z,100261.20
2018-04-14T19:56:37.601Z,100267.78
2018-04-14T19:59:38.985Z,100257.98
2018-04-14T20:02:40.282Z,100254.46
2018-04-14T20:05:41.627Z,100253.72
2018-04-14T20:08:42.943Z,100246.38
2018-04-14T20:11:44.254Z,100263.15
2018-04-14T20:14:45.542Z,100262.20
2018-04-14T20:17:46.890Z,100243.66
2018-04-14T20:20:48.215Z,100243.03
2018-04-14T20:23:49.586Z,100252.27
2018-04-14T20:26:50.873Z,100248.30
2018-04-14T20:29:52.205Z,100243.36
2018-04-14T20:32:53.656Z,100234.92
2018-04-14T20:35:55.838Z,100241.97
2018-04-14T20:38:58.291Z,100236.35
2018-04-14T20:41:59.782Z,100244.84
2018-04-14T20:45:01.081Z,100246.33
2018-04-14T20:48:02.446Z,100245.37
2018-04-14T20:51:03.741Z,100248.51
2018-04-14T20:54:05.061Z,100244.03
2018-04-14T20:57:07.076Z,100236.22
2018-04-14T21:00:08.425Z,100235.02
2018-04-14T21:03:09.684Z,100244.18
2018-04-14T21:06:11.104Z,100243.21
2018-04-14T21:09:12.466Z,100240.95
2018-04-14T21:12:13.769Z,100246.50
2018-04-14T21:15:15.797Z,100248.23
2018-04-14T21:18:17.146Z,100242.45
2018-04-14T21:21:18.538Z,100239.33
2018-04-14T21:24:20.045Z,100225.77
2018-04-14T21:27:22.378Z,100226.09
2018-04-14T21:30:23.734Z,100227.87
2018-04-14T21:33:25.032Z,100229.63
2018-04-14T21:36:26.346Z,100216.43
2018-04-14T21:39:27.708Z,100217.38
2018-04-14T21:42:28.979Z,100225.00
2018-04-14T21:45:30.410Z,100227.69
2018-04-14T21:48:31.758Z,100231.17
2018-04-14T21:51:33.083Z,100230.03
2018-04-14T21:54:34.852Z,100216.53
2018-04-14T21:57:36.281Z,100208.39
2018-04-14T22:00:37.634Z,100197.84
2018-04-14T22:03:38.909Z,100191.45
2018-04-14T22:06:40.202Z,100193.00
2018-04-14T22:09:41.491Z,100186.23
2018-04-14T22:12:42.863Z,100186.08
2018-04-14T22:15:44.875Z,100181.09
2018-04-14T22:18:46.187Z,100185.68
2018-04-14T22:21:47.505Z,100185.38
2018-04-14T22:24:49.044Z,100180.44
2018-04-14T22:27:50.782Z,100180.66
2018-04-14T22:30:52.887Z,100179.56
2018-04-14T22:33:54.199Z,100170.92
2018-04-14T22:36:55.539Z,100157.25
2018-04-14T22:39:56.883Z,100169.16
2018-04-14T22:42:58.220Z,100161.38
2018-04-14T22:46:00.267Z,100163.70
2018-04-14T22:49:01.638Z,100152.04
2018-04-14T22:52:02.952Z,100150.72
2018-04-14T22:55:04.350Z,100151.83
2018-04-14T22:58:05.723Z,100146.35
2018-04-14T23:01:07.085Z,100142.16
2018-04-14T23:04:08.398Z,100143.72
2018-04-14T23:07:09.684Z,100133.09
2018-04-14T23:10:10.997Z,100129.78
2018-04-14T23:13:12.289Z,100131.52
2018-04-14T23:16:14.362Z,100133.36
2018-04-14T23:19:16.380Z,100129.10
2018-04-14T23:22:17.683Z,100129.61
2018-04-14T23:25:19.332Z,100133.64
2018-04-14T23:28:20.761Z,100122.21
2018-04-14T23:31:22.845Z,100118.56
2018-04-14T23:34:24.743Z,100120.11
2018-04-14T23:37:26.041Z,100120.83
2018-04-14T23:40:27.361Z,100117.63
2018-04-14T23:43:28.660Z,100119.94
2018-04-14T23:46:30.084Z,100124.23
2018-04-14T23:49:31.393Z,100117.98
2018-04-14T23:52:34.210Z,100117.83
2018-04-14T23:55:35.754Z,100111.59
2018-04-14T23:58:37.085Z,100103.62
